LIPE/BLQ METAR and TAF weather

Enter ICAO airport designator
Station Type Date Time Source
LIPE METAR 2020/12/05 04:20 UTC NOAA

LIPE 050420Z 24003KT 7000 -RA SCT065 BKN070 07/07 Q0998


Station Type Date Time Source
LIPE Decoded METAR 2020/12/05 04:20 UTC NOAA

Bologna / Borgo Panigale, Italy (LIPE) 44-32N 011-18E 49M
Dec 04, 2020 - 11:20 PM EST / 2020.12.05 0420 UTC
Wind: from the WSW (240 degrees) at 3 MPH (3 KT):0
Visibility: 4 mile(s):0
Sky conditions: mostly cloudy
Weather: light rain
Temperature: 44 F (7 C)
Dew Point: 44 F (7 C)
Relative Humidity: 100%
Pressure (altimeter): 29.47 in. Hg (0998 hPa)
ob: LIPE 050420Z 24003KT 7000 -RA SCT065 BKN070 07/07 Q0998
cycle: 4

Station Type Date Time Source
LIPE TAF 2020/12/04 18:21 UTC NOAA

TAF LIPE 041700Z 0418/0518 10010KT 8000 BKN020
TEMPO 0500/0512 4000 RA
BECMG 0506/0508 30008KT

Example: see airport list